Diamond Point, Washington
Current Conditions -  °F | °C
As of 6:53 PM on Wednesday 26 Nov 2014 (Local Time) from KCLM Reporting Station
Light Rain Light Rain  
Wind Chill: 52°   Ceiling: 8000
Heat Index: 52°   Visibility: 10mi
Dew Point: 50°   Wind: 3mph
Humidity: 93%   Direction: 190°S
Pressure: 29.85"   Gusts: NA
Location:  48.0015°N, 123.09°W
Report Text: KCLM 270253Z AUTO 19003KT 10SM -RA SCT015 BKN080 OVC100 11/10 A2985 RMK AO2 RAB06 SLP107 P0000 60000 T01110100 58031 $
Loading
Personal Weather Stations






























Interactive Weather Map New forecast layout! Learn more

10-Day Weather Forecast

Advertisements
Track Severe Weather on mobile